sensor_id;sensor_type;location;lat;lon;timestamp;P1;durP1;ratioP1;P2;durP2;ratioP2
2011;SDS011;1009;51.436;6.972;2023-11-19T00:00:05;6.60;;;6.00;;
2011;SDS011;1009;51.436;6.972;2023-11-19T00:02:36;7.53;;;6.40;;
2011;SDS011;1009;51.436;6.972;2023-11-19T00:05:04;8.13;;;7.30;;
2011;SDS011;1009;51.436;6.972;2023-11-19T00:07:33;9.67;;;8.10;;
2011;SDS011;1009;51.436;6.972;2023-11-19T00:10:00;7.10;;;6.03;;
2011;SDS011;1009;51.436;6.972;2023-11-19T00:12:35;6.00;;;5.50;;
2011;SDS011;1009;51.436;6.972;2023-11-19T00:15:03;7.57;;;5.93;;
2011;SDS011;1009;51.436;6.972;2023-11-19T00:17:30;12.90;;;6.77;;
2011;SDS011;1009;51.436;6.972;2023-11-19T00:19:57;9.90;;;6.57;;
2011;SDS011;1009;51.436;6.972;2023-11-19T00:22:25;7.03;;;6.17;;
2011;SDS011;1009;51.436;6.972;2023-11-19T00:24:52;6.63;;;6.03;;
2011;SDS011;1009;51.436;6.972;2023-11-19T00:27:19;8.23;;;6.60;;
2011;SDS011;1009;51.436;6.972;2023-11-19T00:29:46;13.57;;;6.80;;
2011;SDS011;1009;51.436;6.972;2023-11-19T00:32:13;8.73;;;6.83;;
2011;SDS011;1009;51.436;6.972;2023-11-19T00:34:40;6.60;;;5.90;;
2011;SDS011;1009;51.436;6.972;2023-11-19T00:37:09;6.70;;;6.00;;
2011;SDS011;1009;51.436;6.972;2023-11-19T00:39:37;8.47;;;5.80;;
2011;SDS011;1009;51.436;6.972;2023-11-19T00:42:04;8.60;;;6.77;;
2011;SDS011;1009;51.436;6.972;2023-11-19T00:44:31;8.87;;;7.93;;
2011;SDS011;1009;51.436;6.972;2023-11-19T00:46:58;7.90;;;6.20;;
2011;SDS011;1009;51.436;6.972;2023-11-19T00:49:25;8.73;;;6.63;;
2011;SDS011;1009;51.436;6.972;2023-11-19T00:51:52;7.20;;;6.13;;
2011;SDS011;1009;51.436;6.972;2023-11-19T00:54:19;7.43;;;4.90;;
2011;SDS011;1009;51.436;6.972;2023-11-19T00:56:47;5.70;;;5.20;;
2011;SDS011;1009;51.436;6.972;2023-11-19T00:59:17;10.13;;;5.00;;
2011;SDS011;1009;51.436;6.972;2023-11-19T01:01:44;6.43;;;5.30;;
2011;SDS011;1009;51.436;6.972;2023-11-19T01:04:10;5.33;;;4.83;;
2011;SDS011;1009;51.436;6.972;2023-11-19T01:06:37;7.00;;;5.13;;
2011;SDS011;1009;51.436;6.972;2023-11-19T01:09:04;5.80;;;4.83;;
2011;SDS011;1009;51.436;6.972;2023-11-19T01:11:31;5.47;;;4.93;;
2011;SDS011;1009;51.436;6.972;2023-11-19T01:13:59;6.20;;;4.50;;
2011;SDS011;1009;51.436;6.972;2023-11-19T01:16:25;4.53;;;4.13;;
2011;SDS011;1009;51.436;6.972;2023-11-19T01:18:52;5.27;;;4.77;;
2011;SDS011;1009;51.436;6.972;2023-11-19T01:21:19;5.20;;;4.70;;
2011;SDS011;1009;51.436;6.972;2023-11-19T01:23:47;4.90;;;4.50;;
2011;SDS011;1009;51.436;6.972;2023-11-19T01:26:13;6.43;;;4.10;;
2011;SDS011;1009;51.436;6.972;2023-11-19T01:28:40;3.90;;;3.50;;
2011;SDS011;1009;51.436;6.972;2023-11-19T01:31:11;4.17;;;3.77;;
2011;SDS011;1009;51.436;6.972;2023-11-19T01:33:38;6.33;;;4.63;;
2011;SDS011;1009;51.436;6.972;2023-11-19T01:36:05;4.17;;;3.83;;
2011;SDS011;1009;51.436;6.972;2023-11-19T01:38:33;8.00;;;4.30;;
2011;SDS011;1009;51.436;6.972;2023-11-19T01:41:00;5.80;;;4.00;;
2011;SDS011;1009;51.436;6.972;2023-11-19T01:43:31;5.03;;;4.53;;
2011;SDS011;1009;51.436;6.972;2023-11-19T01:45:59;6.47;;;3.77;;
2011;SDS011;1009;51.436;6.972;2023-11-19T01:48:27;3.60;;;3.30;;
2011;SDS011;1009;51.436;6.972;2023-11-19T01:50:54;6.17;;;3.90;;
2011;SDS011;1009;51.436;6.972;2023-11-19T01:53:21;4.57;;;3.93;;
2011;SDS011;1009;51.436;6.972;2023-11-19T01:55:49;3.67;;;3.37;;
2011;SDS011;1009;51.436;6.972;2023-11-19T01:58:17;4.60;;;3.97;;
2011;SDS011;1009;51.436;6.972;2023-11-19T02:00:44;3.83;;;3.43;;
2011;SDS011;1009;51.436;6.972;2023-11-19T02:03:11;5.63;;;4.27;;
2011;SDS011;1009;51.436;6.972;2023-11-19T02:05:40;4.60;;;4.10;;
2011;SDS011;1009;51.436;6.972;2023-11-19T02:08:07;3.83;;;3.37;;
2011;SDS011;1009;51.436;6.972;2023-11-19T02:10:34;3.80;;;3.50;;
2011;SDS011;1009;51.436;6.972;2023-11-19T02:13:01;4.23;;;3.80;;
2011;SDS011;1009;51.436;6.972;2023-11-19T02:15:30;4.50;;;4.17;;
2011;SDS011;1009;51.436;6.972;2023-11-19T02:17:57;4.57;;;3.70;;
2011;SDS011;1009;51.436;6.972;2023-11-19T02:20:44;5.43;;;3.73;;
2011;SDS011;1009;51.436;6.972;2023-11-19T02:23:11;4.17;;;3.77;;
2011;SDS011;1009;51.436;6.972;2023-11-19T02:25:39;3.50;;;3.20;;
2011;SDS011;1009;51.436;6.972;2023-11-19T02:28:08;3.83;;;3.60;;
2011;SDS011;1009;51.436;6.972;2023-11-19T02:33:59;7.10;;;2.40;;
2011;SDS011;1009;51.436;6.972;2023-11-19T02:36:27;2.83;;;2.60;;
2011;SDS011;1009;51.436;6.972;2023-11-19T02:38:54;6.37;;;2.97;;
2011;SDS011;1009;51.436;6.972;2023-11-19T02:41:25;4.23;;;3.70;;
2011;SDS011;1009;51.436;6.972;2023-11-19T02:43:53;3.50;;;2.77;;
2011;SDS011;1009;51.436;6.972;2023-11-19T02:46:24;3.77;;;3.40;;
2011;SDS011;1009;51.436;6.972;2023-11-19T02:49:00;6.17;;;2.83;;
2011;SDS011;1009;51.436;6.972;2023-11-19T02:51:30;11.00;;;2.70;;
2011;SDS011;1009;51.436;6.972;2023-11-19T02:53:58;7.10;;;3.20;;
2011;SDS011;1009;51.436;6.972;2023-11-19T02:56:26;4.47;;;2.80;;
2011;SDS011;1009;51.436;6.972;2023-11-19T02:58:56;3.53;;;3.10;;
2011;SDS011;1009;51.436;6.972;2023-11-19T03:01:25;6.23;;;3.70;;
2011;SDS011;1009;51.436;6.972;2023-11-19T03:03:57;4.20;;;3.00;;
2011;SDS011;1009;51.436;6.972;2023-11-19T03:06:37;4.93;;;3.60;;
2011;SDS011;1009;51.436;6.972;2023-11-19T03:09:05;4.37;;;3.00;;
2011;SDS011;1009;51.436;6.972;2023-11-19T03:14:22;4.40;;;3.03;;
2011;SDS011;1009;51.436;6.972;2023-11-19T03:16:50;3.90;;;2.97;;
2011;SDS011;1009;51.436;6.972;2023-11-19T03:19:17;6.13;;;3.40;;
2011;SDS011;1009;51.436;6.972;2023-11-19T03:21:44;11.23;;;3.73;;
2011;SDS011;1009;51.436;6.972;2023-11-19T03:24:14;13.10;;;3.80;;
2011;SDS011;1009;51.436;6.972;2023-11-19T03:26:42;8.83;;;3.40;;
2011;SDS011;1009;51.436;6.972;2023-11-19T03:29:15;7.23;;;3.50;;
2011;SDS011;1009;51.436;6.972;2023-11-19T03:31:45;5.63;;;3.43;;
2011;SDS011;1009;51.436;6.972;2023-11-19T03:34:14;5.80;;;3.80;;
2011;SDS011;1009;51.436;6.972;2023-11-19T03:36:45;6.70;;;3.80;;
2011;SDS011;1009;51.436;6.972;2023-11-19T03:39:14;7.50;;;4.70;;
2011;SDS011;1009;51.436;6.972;2023-11-19T03:41:41;10.47;;;4.30;;
2011;SDS011;1009;51.436;6.972;2023-11-19T03:44:12;6.80;;;4.40;;
2011;SDS011;1009;51.436;6.972;2023-11-19T03:46:46;12.87;;;4.20;;
2011;SDS011;1009;51.436;6.972;2023-11-19T03:49:16;9.10;;;4.47;;
2011;SDS011;1009;51.436;6.972;2023-11-19T03:51:44;7.80;;;4.03;;
2011;SDS011;1009;51.436;6.972;2023-11-19T03:54:14;12.93;;;4.20;;
2011;SDS011;1009;51.436;6.972;2023-11-19T03:56:42;22.23;;;4.50;;
2011;SDS011;1009;51.436;6.972;2023-11-19T03:59:09;10.83;;;4.10;;
2011;SDS011;1009;51.436;6.972;2023-11-19T04:01:40;16.77;;;4.90;;
2011;SDS011;1009;51.436;6.972;2023-11-19T04:04:10;7.00;;;3.90;;
2011;SDS011;1009;51.436;6.972;2023-11-19T04:06:37;15.27;;;4.67;;
2011;SDS011;1009;51.436;6.972;2023-11-19T04:09:03;13.10;;;5.67;;
2011;SDS011;1009;51.436;6.972;2023-11-19T04:11:31;5.37;;;3.77;;
2011;SDS011;1009;51.436;6.972;2023-11-19T04:14:06;10.17;;;4.67;;
2011;SDS011;1009;51.436;6.972;2023-11-19T04:16:33;6.73;;;3.73;;
2011;SDS011;1009;51.436;6.972;2023-11-19T04:19:00;9.67;;;3.67;;
2011;SDS011;1009;51.436;6.972;2023-11-19T04:21:38;10.07;;;4.30;;
2011;SDS011;1009;51.436;6.972;2023-11-19T04:24:08;9.80;;;3.77;;
2011;SDS011;1009;51.436;6.972;2023-11-19T04:26:40;13.10;;;4.97;;
2011;SDS011;1009;51.436;6.972;2023-11-19T04:29:08;8.90;;;4.60;;
2011;SDS011;1009;51.436;6.972;2023-11-19T04:31:36;18.03;;;4.07;;
2011;SDS011;1009;51.436;6.972;2023-11-19T04:34:04;16.07;;;4.37;;
2011;SDS011;1009;51.436;6.972;2023-11-19T04:36:31;15.90;;;4.50;;
2011;SDS011;1009;51.436;6.972;2023-11-19T04:39:01;12.87;;;4.30;;
2011;SDS011;1009;51.436;6.972;2023-11-19T04:41:29;23.93;;;5.47;;
2011;SDS011;1009;51.436;6.972;2023-11-19T04:43:59;14.83;;;4.50;;
2011;SDS011;1009;51.436;6.972;2023-11-19T04:46:26;12.87;;;5.20;;
2011;SDS011;1009;51.436;6.972;2023-11-19T04:48:54;12.27;;;3.63;;
2011;SDS011;1009;51.436;6.972;2023-11-19T04:51:22;16.77;;;5.13;;
2011;SDS011;1009;51.436;6.972;2023-11-19T04:53:50;15.47;;;5.43;;
2011;SDS011;1009;51.436;6.972;2023-11-19T04:56:23;10.40;;;3.50;;
2011;SDS011;1009;51.436;6.972;2023-11-19T04:58:51;16.87;;;4.27;;
2011;SDS011;1009;51.436;6.972;2023-11-19T05:01:18;18.70;;;4.23;;
2011;SDS011;1009;51.436;6.972;2023-11-19T05:03:50;15.07;;;3.40;;
2011;SDS011;1009;51.436;6.972;2023-11-19T05:06:17;18.83;;;4.27;;
2011;SDS011;1009;51.436;6.972;2023-11-19T05:08:45;12.47;;;4.00;;
2011;SDS011;1009;51.436;6.972;2023-11-19T05:11:13;11.03;;;4.00;;
2011;SDS011;1009;51.436;6.972;2023-11-19T05:13:46;25.87;;;4.63;;
2011;SDS011;1009;51.436;6.972;2023-11-19T05:16:14;16.13;;;4.10;;
2011;SDS011;1009;51.436;6.972;2023-11-19T05:18:41;16.70;;;4.07;;
2011;SDS011;1009;51.436;6.972;2023-11-19T05:21:12;10.50;;;3.83;;
2011;SDS011;1009;51.436;6.972;2023-11-19T05:23:43;12.37;;;4.10;;
2011;SDS011;1009;51.436;6.972;2023-11-19T05:26:17;17.93;;;3.77;;
2011;SDS011;1009;51.436;6.972;2023-11-19T05:28:52;22.53;;;4.60;;
2011;SDS011;1009;51.436;6.972;2023-11-19T05:31:20;20.47;;;3.57;;
2011;SDS011;1009;51.436;6.972;2023-11-19T05:33:50;12.10;;;3.43;;
2011;SDS011;1009;51.436;6.972;2023-11-19T05:36:18;18.73;;;3.90;;
2011;SDS011;1009;51.436;6.972;2023-11-19T05:38:45;10.87;;;4.27;;
2011;SDS011;1009;51.436;6.972;2023-11-19T05:41:15;17.73;;;3.63;;
2011;SDS011;1009;51.436;6.972;2023-11-19T05:43:42;10.93;;;3.33;;
2011;SDS011;1009;51.436;6.972;2023-11-19T05:46:14;14.33;;;2.57;;
2011;SDS011;1009;51.436;6.972;2023-11-19T05:48:41;14.73;;;3.37;;
2011;SDS011;1009;51.436;6.972;2023-11-19T05:51:12;15.27;;;4.20;;
2011;SDS011;1009;51.436;6.972;2023-11-19T05:53:40;6.07;;;2.57;;
2011;SDS011;1009;51.436;6.972;2023-11-19T05:56:08;15.03;;;2.63;;
2011;SDS011;1009;51.436;6.972;2023-11-19T05:58:38;14.77;;;3.40;;
2011;SDS011;1009;51.436;6.972;2023-11-19T06:01:05;8.77;;;3.70;;
2011;SDS011;1009;51.436;6.972;2023-11-19T06:03:34;13.30;;;3.30;;
2011;SDS011;1009;51.436;6.972;2023-11-19T06:06:02;6.20;;;3.00;;
2011;SDS011;1009;51.436;6.972;2023-11-19T06:08:30;12.90;;;3.63;;
2011;SDS011;1009;51.436;6.972;2023-11-19T06:10:57;13.63;;;2.70;;
2011;SDS011;1009;51.436;6.972;2023-11-19T06:13:26;12.40;;;2.97;;
2011;SDS011;1009;51.436;6.972;2023-11-19T06:15:56;9.77;;;3.17;;
2011;SDS011;1009;51.436;6.972;2023-11-19T06:18:24;7.63;;;3.43;;
2011;SDS011;1009;51.436;6.972;2023-11-19T06:21:00;16.67;;;3.47;;
2011;SDS011;1009;51.436;6.972;2023-11-19T06:23:28;15.20;;;3.30;;
2011;SDS011;1009;51.436;6.972;2023-11-19T06:25:56;14.00;;;3.10;;
2011;SDS011;1009;51.436;6.972;2023-11-19T06:28:24;8.53;;;3.23;;
2011;SDS011;1009;51.436;6.972;2023-11-19T06:30:52;15.13;;;3.50;;
2011;SDS011;1009;51.436;6.972;2023-11-19T06:33:26;16.03;;;4.73;;
2011;SDS011;1009;51.436;6.972;2023-11-19T06:38:49;20.07;;;4.17;;
2011;SDS011;1009;51.436;6.972;2023-11-19T06:41:20;14.43;;;2.93;;
2011;SDS011;1009;51.436;6.972;2023-11-19T06:43:50;16.57;;;3.40;;
2011;SDS011;1009;51.436;6.972;2023-11-19T06:46:18;10.60;;;3.60;;
2011;SDS011;1009;51.436;6.972;2023-11-19T06:48:46;17.30;;;5.20;;
2011;SDS011;1009;51.436;6.972;2023-11-19T06:51:13;8.80;;;2.70;;
2011;SDS011;1009;51.436;6.972;2023-11-19T06:53:43;20.40;;;3.13;;
2011;SDS011;1009;51.436;6.972;2023-11-19T06:56:23;10.63;;;5.33;;
2011;SDS011;1009;51.436;6.972;2023-11-19T06:58:51;7.80;;;2.17;;
2011;SDS011;1009;51.436;6.972;2023-11-19T07:01:19;12.57;;;2.80;;
2011;SDS011;1009;51.436;6.972;2023-11-19T07:03:54;11.93;;;2.50;;
2011;SDS011;1009;51.436;6.972;2023-11-19T07:06:27;15.97;;;3.17;;
2011;SDS011;1009;51.436;6.972;2023-11-19T07:08:56;10.67;;;2.97;;
2011;SDS011;1009;51.436;6.972;2023-11-19T07:11:26;15.10;;;2.57;;
2011;SDS011;1009;51.436;6.972;2023-11-19T07:13:54;12.17;;;2.63;;
2011;SDS011;1009;51.436;6.972;2023-11-19T07:16:22;10.53;;;3.03;;
2011;SDS011;1009;51.436;6.972;2023-11-19T07:18:49;14.93;;;3.30;;
2011;SDS011;1009;51.436;6.972;2023-11-19T07:21:17;10.33;;;2.90;;
2011;SDS011;1009;51.436;6.972;2023-11-19T07:23:44;7.17;;;2.10;;
2011;SDS011;1009;51.436;6.972;2023-11-19T07:26:13;19.73;;;3.47;;
2011;SDS011;1009;51.436;6.972;2023-11-19T07:28:46;10.77;;;2.13;;
2011;SDS011;1009;51.436;6.972;2023-11-19T07:31:13;6.57;;;2.40;;
2011;SDS011;1009;51.436;6.972;2023-11-19T07:33:41;11.77;;;2.30;;
2011;SDS011;1009;51.436;6.972;2023-11-19T07:36:09;11.67;;;2.83;;
2011;SDS011;1009;51.436;6.972;2023-11-19T07:38:39;14.20;;;2.63;;
2011;SDS011;1009;51.436;6.972;2023-11-19T07:41:09;24.87;;;4.40;;
2011;SDS011;1009;51.436;6.972;2023-11-19T07:43:42;10.50;;;2.60;;
2011;SDS011;1009;51.436;6.972;2023-11-19T07:46:11;15.43;;;2.80;;
2011;SDS011;1009;51.436;6.972;2023-11-19T07:48:44;14.57;;;2.67;;
2011;SDS011;1009;51.436;6.972;2023-11-19T07:51:14;14.67;;;2.80;;
2011;SDS011;1009;51.436;6.972;2023-11-19T07:53:45;11.70;;;2.50;;
2011;SDS011;1009;51.436;6.972;2023-11-19T07:56:15;15.77;;;3.50;;
2011;SDS011;1009;51.436;6.972;2023-11-19T07:58:45;13.93;;;3.10;;
2011;SDS011;1009;51.436;6.972;2023-11-19T08:01:13;10.30;;;3.20;;
2011;SDS011;1009;51.436;6.972;2023-11-19T08:03:42;10.10;;;2.40;;
2011;SDS011;1009;51.436;6.972;2023-11-19T08:06:09;16.83;;;4.47;;
2011;SDS011;1009;51.436;6.972;2023-11-19T08:08:36;15.53;;;2.57;;
2011;SDS011;1009;51.436;6.972;2023-11-19T08:11:05;13.23;;;3.30;;
2011;SDS011;1009;51.436;6.972;2023-11-19T08:13:38;13.80;;;3.27;;
2011;SDS011;1009;51.436;6.972;2023-11-19T08:16:07;11.97;;;2.80;;
2011;SDS011;1009;51.436;6.972;2023-11-19T08:18:34;15.40;;;3.27;;
2011;SDS011;1009;51.436;6.972;2023-11-19T08:21:01;15.87;;;3.27;;
2011;SDS011;1009;51.436;6.972;2023-11-19T08:23:29;15.30;;;2.50;;
2011;SDS011;1009;51.436;6.972;2023-11-19T08:25:56;19.20;;;3.33;;
2011;SDS011;1009;51.436;6.972;2023-11-19T08:28:23;9.60;;;2.70;;
2011;SDS011;1009;51.436;6.972;2023-11-19T08:30:50;17.40;;;2.40;;
2011;SDS011;1009;51.436;6.972;2023-11-19T08:33:18;17.57;;;2.73;;
2011;SDS011;1009;51.436;6.972;2023-11-19T08:35:47;19.77;;;3.50;;
2011;SDS011;1009;51.436;6.972;2023-11-19T08:38:14;10.83;;;2.50;;
2011;SDS011;1009;51.436;6.972;2023-11-19T08:40:41;17.27;;;4.00;;
2011;SDS011;1009;51.436;6.972;2023-11-19T08:43:07;13.93;;;3.33;;
2011;SDS011;1009;51.436;6.972;2023-11-19T08:45:34;11.33;;;3.17;;
2011;SDS011;1009;51.436;6.972;2023-11-19T08:48:01;15.50;;;2.50;;
2011;SDS011;1009;51.436;6.972;2023-11-19T08:50:29;16.97;;;2.43;;
2011;SDS011;1009;51.436;6.972;2023-11-19T08:52:56;18.57;;;2.97;;
2011;SDS011;1009;51.436;6.972;2023-11-19T08:55:23;13.80;;;2.60;;
2011;SDS011;1009;51.436;6.972;2023-11-19T08:57:51;14.90;;;3.60;;
2011;SDS011;1009;51.436;6.972;2023-11-19T09:00:18;16.27;;;4.03;;
2011;SDS011;1009;51.436;6.972;2023-11-19T09:02:46;15.10;;;3.37;;
2011;SDS011;1009;51.436;6.972;2023-11-19T09:05:12;21.80;;;2.67;;
2011;SDS011;1009;51.436;6.972;2023-11-19T09:07:41;17.37;;;2.77;;
2011;SDS011;1009;51.436;6.972;2023-11-19T09:10:07;13.77;;;2.80;;
2011;SDS011;1009;51.436;6.972;2023-11-19T09:12:36;12.03;;;2.80;;
2011;SDS011;1009;51.436;6.972;2023-11-19T09:15:03;28.77;;;4.47;;
2011;SDS011;1009;51.436;6.972;2023-11-19T09:17:31;12.53;;;3.40;;
2011;SDS011;1009;51.436;6.972;2023-11-19T09:19:58;13.83;;;2.60;;
2011;SDS011;1009;51.436;6.972;2023-11-19T09:22:25;15.43;;;2.40;;
2011;SDS011;1009;51.436;6.972;2023-11-19T09:24:53;11.43;;;2.87;;
2011;SDS011;1009;51.436;6.972;2023-11-19T09:27:19;9.93;;;2.57;;
2011;SDS011;1009;51.436;6.972;2023-11-19T09:29:46;17.47;;;2.70;;
2011;SDS011;1009;51.436;6.972;2023-11-19T09:32:14;24.43;;;3.87;;
2011;SDS011;1009;51.436;6.972;2023-11-19T09:34:41;14.93;;;3.87;;
2011;SDS011;1009;51.436;6.972;2023-11-19T09:37:08;9.93;;;2.40;;
2011;SDS011;1009;51.436;6.972;2023-11-19T09:39:35;15.60;;;2.67;;
2011;SDS011;1009;51.436;6.972;2023-11-19T09:42:03;9.23;;;1.80;;
2011;SDS011;1009;51.436;6.972;2023-11-19T09:44:30;19.20;;;3.00;;
2011;SDS011;1009;51.436;6.972;2023-11-19T09:46:57;17.93;;;3.10;;
2011;SDS011;1009;51.436;6.972;2023-11-19T09:49:25;1.00;;;0.80;;
2011;SDS011;1009;51.436;6.972;2023-11-19T09:51:53;6.37;;;2.00;;
2011;SDS011;1009;51.436;6.972;2023-11-19T09:54:20;6.40;;;1.87;;
2011;SDS011;1009;51.436;6.972;2023-11-19T09:56:47;15.47;;;4.00;;
2011;SDS011;1009;51.436;6.972;2023-11-19T09:59:16;13.70;;;3.67;;
2011;SDS011;1009;51.436;6.972;2023-11-19T10:01:43;24.77;;;4.10;;
2011;SDS011;1009;51.436;6.972;2023-11-19T10:04:11;10.23;;;2.23;;
2011;SDS011;1009;51.436;6.972;2023-11-19T10:06:41;11.47;;;2.57;;
2011;SDS011;1009;51.436;6.972;2023-11-19T10:09:08;14.80;;;2.97;;
2011;SDS011;1009;51.436;6.972;2023-11-19T10:11:35;15.67;;;3.00;;
2011;SDS011;1009;51.436;6.972;2023-11-19T10:14:02;10.33;;;2.70;;
2011;SDS011;1009;51.436;6.972;2023-11-19T10:16:30;9.30;;;2.30;;
2011;SDS011;1009;51.436;6.972;2023-11-19T10:18:57;11.33;;;2.70;;
2011;SDS011;1009;51.436;6.972;2023-11-19T10:21:24;8.50;;;2.70;;
2011;SDS011;1009;51.436;6.972;2023-11-19T10:23:53;16.47;;;4.17;;
2011;SDS011;1009;51.436;6.972;2023-11-19T10:26:22;21.80;;;4.17;;
2011;SDS011;1009;51.436;6.972;2023-11-19T10:28:49;14.03;;;3.60;;
2011;SDS011;1009;51.436;6.972;2023-11-19T10:31:16;13.23;;;2.53;;
2011;SDS011;1009;51.436;6.972;2023-11-19T10:33:45;16.93;;;2.47;;
2011;SDS011;1009;51.436;6.972;2023-11-19T10:36:12;10.23;;;4.33;;
2011;SDS011;1009;51.436;6.972;2023-11-19T10:38:39;18.00;;;2.90;;
2011;SDS011;1009;51.436;6.972;2023-11-19T10:41:07;16.23;;;2.90;;
2011;SDS011;1009;51.436;6.972;2023-11-19T10:43:42;14.73;;;2.63;;
2011;SDS011;1009;51.436;6.972;2023-11-19T10:46:10;18.97;;;4.03;;
2011;SDS011;1009;51.436;6.972;2023-11-19T10:48:38;11.83;;;2.40;;
2011;SDS011;1009;51.436;6.972;2023-11-19T10:51:07;17.23;;;2.40;;
2011;SDS011;1009;51.436;6.972;2023-11-19T10:53:35;19.27;;;3.50;;
2011;SDS011;1009;51.436;6.972;2023-11-19T10:56:04;17.07;;;4.47;;
2011;SDS011;1009;51.436;6.972;2023-11-19T10:58:36;17.23;;;3.60;;
2011;SDS011;1009;51.436;6.972;2023-11-19T11:01:04;14.67;;;2.73;;
2011;SDS011;1009;51.436;6.972;2023-11-19T11:03:38;4.53;;;1.93;;
2011;SDS011;1009;51.436;6.972;2023-11-19T11:06:07;7.83;;;2.90;;
2011;SDS011;1009;51.436;6.972;2023-11-19T11:08:36;16.77;;;3.47;;
2011;SDS011;1009;51.436;6.972;2023-11-19T11:11:04;11.73;;;4.33;;
2011;SDS011;1009;51.436;6.972;2023-11-19T11:13:31;14.03;;;2.53;;
2011;SDS011;1009;51.436;6.972;2023-11-19T11:15:59;19.80;;;3.23;;
2011;SDS011;1009;51.436;6.972;2023-11-19T11:18:26;14.13;;;2.30;;
2011;SDS011;1009;51.436;6.972;2023-11-19T11:20:54;18.40;;;3.27;;
2011;SDS011;1009;51.436;6.972;2023-11-19T11:26:46;12.33;;;2.20;;
2011;SDS011;1009;51.436;6.972;2023-11-19T11:29:31;9.77;;;2.20;;
2011;SDS011;1009;51.436;6.972;2023-11-19T11:32:07;14.63;;;3.20;;
2011;SDS011;1009;51.436;6.972;2023-11-19T11:34:53;16.37;;;2.77;;
2011;SDS011;1009;51.436;6.972;2023-11-19T11:37:30;13.43;;;3.17;;
2011;SDS011;1009;51.436;6.972;2023-11-19T11:40:00;12.30;;;2.70;;
2011;SDS011;1009;51.436;6.972;2023-11-19T11:42:30;13.20;;;2.70;;
2011;SDS011;1009;51.436;6.972;2023-11-19T11:45:01;11.97;;;3.57;;
2011;SDS011;1009;51.436;6.972;2023-11-19T11:50:51;12.07;;;2.37;;
2011;SDS011;1009;51.436;6.972;2023-11-19T11:53:20;9.20;;;2.20;;
2011;SDS011;1009;51.436;6.972;2023-11-19T11:55:53;15.87;;;2.70;;
2011;SDS011;1009;51.436;6.972;2023-11-19T11:58:25;12.20;;;2.30;;
2011;SDS011;1009;51.436;6.972;2023-11-19T12:00:53;14.87;;;3.53;;
2011;SDS011;1009;51.436;6.972;2023-11-19T12:03:20;10.10;;;1.90;;
2011;SDS011;1009;51.436;6.972;2023-11-19T12:05:48;10.10;;;1.77;;
2011;SDS011;1009;51.436;6.972;2023-11-19T12:08:16;14.20;;;3.30;;
2011;SDS011;1009;51.436;6.972;2023-11-19T12:10:46;12.90;;;2.27;;
2011;SDS011;1009;51.436;6.972;2023-11-19T12:13:15;8.60;;;1.93;;
2011;SDS011;1009;51.436;6.972;2023-11-19T12:18:36;11.67;;;2.47;;
2011;SDS011;1009;51.436;6.972;2023-11-19T12:21:07;7.20;;;1.43;;
2011;SDS011;1009;51.436;6.972;2023-11-19T12:23:35;7.63;;;2.60;;
2011;SDS011;1009;51.436;6.972;2023-11-19T12:26:20;7.63;;;2.60;;
2011;SDS011;1009;51.436;6.972;2023-11-19T12:29:01;12.60;;;2.93;;
2011;SDS011;1009;51.436;6.972;2023-11-19T12:31:31;8.33;;;2.27;;
2011;SDS011;1009;51.436;6.972;2023-11-19T12:34:00;11.10;;;2.03;;
2011;SDS011;1009;51.436;6.972;2023-11-19T12:36:31;10.50;;;2.00;;
2011;SDS011;1009;51.436;6.972;2023-11-19T12:38:58;8.40;;;2.00;;
2011;SDS011;1009;51.436;6.972;2023-11-19T12:41:25;12.40;;;2.40;;
2011;SDS011;1009;51.436;6.972;2023-11-19T12:43:52;7.53;;;1.97;;
2011;SDS011;1009;51.436;6.972;2023-11-19T12:46:21;13.40;;;2.03;;
2011;SDS011;1009;51.436;6.972;2023-11-19T12:48:49;11.50;;;2.20;;
2011;SDS011;1009;51.436;6.972;2023-11-19T12:51:16;18.30;;;4.00;;
2011;SDS011;1009;51.436;6.972;2023-11-19T12:53:48;7.90;;;1.83;;
2011;SDS011;1009;51.436;6.972;2023-11-19T12:56:16;6.60;;;2.70;;
2011;SDS011;1009;51.436;6.972;2023-11-19T12:58:43;13.90;;;3.20;;
2011;SDS011;1009;51.436;6.972;2023-11-19T13:01:14;5.43;;;1.70;;
2011;SDS011;1009;51.436;6.972;2023-11-19T13:03:43;8.50;;;2.07;;
2011;SDS011;1009;51.436;6.972;2023-11-19T13:06:12;11.53;;;2.60;;
2011;SDS011;1009;51.436;6.972;2023-11-19T13:08:41;10.20;;;1.97;;
2011;SDS011;1009;51.436;6.972;2023-11-19T13:11:09;9.23;;;2.40;;
2011;SDS011;1009;51.436;6.972;2023-11-19T13:13:55;5.70;;;2.00;;
2011;SDS011;1009;51.436;6.972;2023-11-19T13:16:23;7.03;;;1.60;;
2011;SDS011;1009;51.436;6.972;2023-11-19T13:18:52;10.70;;;2.10;;
2011;SDS011;1009;51.436;6.972;2023-11-19T13:21:18;4.50;;;1.90;;
2011;SDS011;1009;51.436;6.972;2023-11-19T13:23:45;9.83;;;2.20;;
2011;SDS011;1009;51.436;6.972;2023-11-19T13:26:12;11.60;;;1.87;;
2011;SDS011;1009;51.436;6.972;2023-11-19T13:28:39;6.60;;;1.80;;
2011;SDS011;1009;51.436;6.972;2023-11-19T13:31:06;11.87;;;1.53;;
2011;SDS011;1009;51.436;6.972;2023-11-19T13:33:32;4.80;;;1.57;;
2011;SDS011;1009;51.436;6.972;2023-11-19T13:36:03;7.63;;;1.83;;
2011;SDS011;1009;51.436;6.972;2023-11-19T13:38:32;7.20;;;2.43;;
2011;SDS011;1009;51.436;6.972;2023-11-19T13:40:59;9.03;;;2.00;;
2011;SDS011;1009;51.436;6.972;2023-11-19T13:43:26;6.20;;;2.00;;
2011;SDS011;1009;51.436;6.972;2023-11-19T13:45:53;10.70;;;2.23;;
2011;SDS011;1009;51.436;6.972;2023-11-19T13:48:20;10.20;;;2.73;;
2011;SDS011;1009;51.436;6.972;2023-11-19T13:50:47;10.93;;;3.30;;
2011;SDS011;1009;51.436;6.972;2023-11-19T13:53:16;7.13;;;2.17;;
2011;SDS011;1009;51.436;6.972;2023-11-19T13:55:43;10.90;;;2.33;;
2011;SDS011;1009;51.436;6.972;2023-11-19T13:58:09;8.97;;;1.80;;
2011;SDS011;1009;51.436;6.972;2023-11-19T14:00:36;7.40;;;2.10;;
2011;SDS011;1009;51.436;6.972;2023-11-19T14:03:03;14.57;;;2.33;;
2011;SDS011;1009;51.436;6.972;2023-11-19T14:05:30;5.83;;;2.50;;
2011;SDS011;1009;51.436;6.972;2023-11-19T14:07:57;9.50;;;1.90;;
2011;SDS011;1009;51.436;6.972;2023-11-19T14:10:26;10.13;;;3.07;;
2011;SDS011;1009;51.436;6.972;2023-11-19T14:12:54;9.83;;;2.30;;
2011;SDS011;1009;51.436;6.972;2023-11-19T14:15:21;8.90;;;2.50;;
2011;SDS011;1009;51.436;6.972;2023-11-19T14:17:48;12.37;;;2.63;;
2011;SDS011;1009;51.436;6.972;2023-11-19T14:20:15;13.43;;;2.70;;
2011;SDS011;1009;51.436;6.972;2023-11-19T14:22:42;8.70;;;2.87;;
2011;SDS011;1009;51.436;6.972;2023-11-19T14:25:12;8.57;;;2.73;;
2011;SDS011;1009;51.436;6.972;2023-11-19T14:27:41;9.03;;;1.97;;
2011;SDS011;1009;51.436;6.972;2023-11-19T14:30:09;12.20;;;2.50;;
2011;SDS011;1009;51.436;6.972;2023-11-19T14:32:38;10.80;;;2.40;;
2011;SDS011;1009;51.436;6.972;2023-11-19T14:35:07;16.00;;;4.73;;
2011;SDS011;1009;51.436;6.972;2023-11-19T14:37:34;12.53;;;2.90;;
2011;SDS011;1009;51.436;6.972;2023-11-19T14:40:01;4.70;;;2.00;;
2011;SDS011;1009;51.436;6.972;2023-11-19T14:42:29;6.13;;;1.90;;
2011;SDS011;1009;51.436;6.972;2023-11-19T14:44:58;12.43;;;2.40;;
2011;SDS011;1009;51.436;6.972;2023-11-19T14:47:25;12.23;;;3.77;;
2011;SDS011;1009;51.436;6.972;2023-11-19T14:49:51;11.60;;;2.80;;
2011;SDS011;1009;51.436;6.972;2023-11-19T14:52:18;7.63;;;1.80;;
2011;SDS011;1009;51.436;6.972;2023-11-19T14:54:45;10.57;;;2.47;;
2011;SDS011;1009;51.436;6.972;2023-11-19T14:57:12;12.20;;;3.10;;
2011;SDS011;1009;51.436;6.972;2023-11-19T14:59:39;8.37;;;2.07;;
2011;SDS011;1009;51.436;6.972;2023-11-19T15:02:07;12.10;;;3.10;;
2011;SDS011;1009;51.436;6.972;2023-11-19T15:04:35;7.00;;;1.93;;
2011;SDS011;1009;51.436;6.972;2023-11-19T15:07:02;8.87;;;2.20;;
2011;SDS011;1009;51.436;6.972;2023-11-19T15:09:29;8.57;;;1.97;;
2011;SDS011;1009;51.436;6.972;2023-11-19T15:11:57;4.80;;;1.73;;
2011;SDS011;1009;51.436;6.972;2023-11-19T15:14:24;14.60;;;2.60;;
2011;SDS011;1009;51.436;6.972;2023-11-19T15:16:51;10.60;;;2.80;;
2011;SDS011;1009;51.436;6.972;2023-11-19T15:19:19;12.10;;;1.70;;
2011;SDS011;1009;51.436;6.972;2023-11-19T15:21:46;21.47;;;5.10;;
2011;SDS011;1009;51.436;6.972;2023-11-19T15:24:13;14.03;;;2.43;;
2011;SDS011;1009;51.436;6.972;2023-11-19T15:26:39;12.60;;;2.17;;
2011;SDS011;1009;51.436;6.972;2023-11-19T15:29:06;9.67;;;2.47;;
2011;SDS011;1009;51.436;6.972;2023-11-19T15:31:33;6.10;;;2.40;;
2011;SDS011;1009;51.436;6.972;2023-11-19T15:34:00;9.20;;;2.10;;